El Campo, Texas
Current Conditions -  °F | °C
As of 1:35 AM on Monday 22 Dec 2014 (Local Time) from KARM Reporting Station
Haze Haze  
Wind Chill: 55°   Ceiling: 2900
Heat Index: 55°   Visibility: 3mi
Dew Point: 55°   Wind: 3mph
Humidity: 97%   Direction: 90°E
Pressure: 29.84"   Gusts: NA
Location:  29.22°N, 96.29°W
Report Text: KARM 220735Z AUTO 09003KT 3SM BR BKN029 BKN036 BKN042 13/13 A2984 RMK AO2 T01300125
Loading
Personal Weather Stations






























Interactive Weather Map New forecast layout! Learn more

10-Day Weather Forecast

Advertisements
Track Severe Weather on mobile